Plevna, MT

8:24 PM MDT on July 13, 2014 (GMT -0600)
Baker Municipal (KBHK) Elev 2972 ft | 46.35 °N, 104.26 °W | Change Station

Current weather conditions updated 33 minutes ago

Clear
Clear
73 °F
Feels Like 73 °F
N
10
Wind Variable Wind from NNW

Tomorrow is forecast to be nearly the same temperature as today.

Today
High -- | Low -- °F
--% Chance of Precip.
Yesterday
High -- | Low -- °F
Precip. -- in
5:19 AM 8:48 PM
Waning Gibbous, 96% visible
Pressure 30.10 in
Visibility 10.0 miles
Clouds Clear
Dew Point 46 °F
Humidity 38%
Rainfall 0.00 in
Snow Depth Not available.
UV 0 out of 12
Pollen 5.10 out of 12
Air Quality Not available.
Flu Activity Sporadic
METAR KBHK 140151Z AUTO 34009KT 10SM CLR 23/08 A3015 RMK AO2 SLP191 T02280078

More Conditions Fewer Conditions

Pressure 30.10 in
Visibility 10.0 miles
Clouds Clear
Dew Point 46 °F
Humidity 38%
Rainfall 0.00 in
Snow Depth Not available.
UV 0 out of 12
Pollen 5.10 out of 12
Air Quality Not available.
Flu Activity Sporadic
METAR KBHK 140151Z AUTO 34009KT 10SM CLR 23/08 A3015 RMK AO2 SLP191 T02280078

More Conditions Fewer Conditions

10-Day Weather Forecast

Almanac

Astronomy

Jul. 13, 2014 Rise Set
Actual Time 5:19 AM MDT 8:48 PM MDT
Civil Twilight 4:41 AM MDT 9:26 PM MDT
Nautical Twilight 3:51 AM MDT 10:16 PM MDT
Astronomical Twilight 2:46 AM MDT 11:20 PM MDT
Moon 9:28 PM MDT (7/13) 7:01 AM MDT (7/13)
Length of Visible Light 16h 44m
Length of Day
15h 29m
Tomorrow will be 1m 40s shorter.
Waning Gibbous, 96% of the Moon is Illuminated
Today
Waning Gibbous
Jul 18
Last Quarter
Jul 26
New
Aug 3
First Quarter
Aug 10
Full

Today's Extremes

State Highs State Lows

Community

WunderPhotos

Upload Photos

1,733,533 photos uploaded!

Nearby

Snow Depth

Station Depth Elevation
Crystal Lake 0 in 6050 ft
Cole Creek 0 in 7850 ft
White Mill 1 in 8700 ft
Northeast Entrance 0 in 7350 ft
Porcupine 1 in 6500 ft

Earthquake Activity

City Distance Mag. Time & Date
No recent earthquake activity has been reported nearby.
Minimum magnitude displayed is 2.5.

Coastal Water Temperatures

Place Temperature
No Stations Reporting

Nearby Weather Stations

There are no personal weather stations in this area.